createdAt,value
2019-01-19T00:01:22.441Z,37.80
2019-01-19T00:04:03.393Z,39.50
2019-01-19T00:06:44.110Z,48.23
2019-01-19T00:09:24.722Z,39.50
2019-01-19T00:12:06.115Z,40.43
2019-01-19T00:14:46.595Z,41.37
2019-01-19T00:17:27.493Z,45.40
2019-01-19T00:20:07.931Z,38.63
2019-01-19T00:22:49.385Z,38.17
2019-01-19T00:25:30.378Z,45.50
2019-01-19T00:28:11.269Z,37.50
2019-01-19T00:30:52.630Z,40.00
2019-01-19T00:33:33.491Z,42.87
2019-01-19T00:36:14.175Z,40.57
2019-01-19T00:38:54.971Z,35.17
2019-01-19T00:41:35.643Z,37.10
2019-01-19T00:44:16.546Z,34.93
2019-01-19T00:46:57.933Z,38.10
2019-01-19T00:49:38.729Z,38.70
2019-01-19T00:52:20.027Z,32.33
2019-01-19T00:55:01.031Z,33.07
2019-01-19T00:57:41.509Z,33.70
2019-01-19T01:00:22.259Z,37.43
2019-01-19T01:03:02.796Z,35.27
2019-01-19T01:05:44.101Z,40.00
2019-01-19T01:08:24.933Z,38.50
2019-01-19T01:11:06.225Z,39.10
2019-01-19T01:13:47.531Z,40.87
2019-01-19T01:16:28.265Z,37.00
2019-01-19T01:19:09.109Z,36.53
2019-01-19T01:21:49.839Z,38.77
2019-01-19T01:24:30.559Z,39.60
2019-01-19T01:27:31.901Z,36.03
2019-01-19T01:30:39.276Z,29.67
2019-01-19T01:33:20.627Z,32.77
2019-01-19T01:36:01.936Z,39.53
2019-01-19T01:38:42.607Z,34.57
2019-01-19T01:41:28.424Z,37.63
2019-01-19T01:44:09.665Z,39.30
2019-01-19T01:46:50.469Z,35.73
2019-01-19T01:49:31.390Z,39.07
2019-01-19T01:52:12.178Z,31.83
2019-01-19T01:55:10.458Z,33.57
2019-01-19T01:58:02.223Z,33.13
2019-01-19T02:00:42.754Z,31.73
2019-01-19T02:03:23.280Z,35.80
2019-01-19T02:06:04.222Z,35.90
2019-01-19T02:08:49.650Z,35.50
2019-01-19T02:11:30.754Z,34.30
2019-01-19T02:14:11.543Z,33.80
2019-01-19T02:16:52.528Z,28.47
2019-01-19T02:19:33.800Z,28.00
2019-01-19T02:22:16.513Z,35.30
2019-01-19T02:24:57.562Z,35.40
2019-01-19T02:27:38.393Z,34.83
2019-01-19T02:30:19.025Z,28.30
2019-01-19T02:32:59.785Z,30.83
2019-01-19T02:35:48.159Z,28.83
2019-01-19T02:38:22.987Z,27.57
2019-01-19T02:41:03.854Z,27.37
2019-01-19T02:43:44.411Z,26.80
2019-01-19T02:46:25.236Z,28.70
2019-01-19T02:49:05.798Z,29.17
2019-01-19T02:51:46.621Z,24.00
2019-01-19T02:54:27.857Z,30.13
2019-01-19T02:57:08.435Z,26.60
2019-01-19T03:02:47.771Z,26.83
2019-01-19T03:05:28.982Z,24.37
2019-01-19T03:08:10.031Z,27.30
2019-01-19T03:10:50.662Z,24.87
2019-01-19T03:13:31.470Z,23.00
2019-01-19T03:16:11.981Z,24.40
2019-01-19T03:18:52.661Z,24.60
2019-01-19T03:21:33.411Z,25.83
2019-01-19T03:24:14.610Z,22.30
2019-01-19T03:26:55.099Z,27.43
2019-01-19T03:29:36.343Z,24.33
2019-01-19T03:32:18.000Z,26.73
2019-01-19T03:38:47.468Z,18.60
2019-01-19T03:41:29.112Z,23.53
2019-01-19T03:44:10.475Z,23.00
2019-01-19T03:46:51.195Z,21.47
2019-01-19T03:56:01.659Z,26.33
2019-01-19T03:58:42.428Z,19.00
2019-01-19T04:01:23.218Z,24.33
2019-01-19T04:04:04.422Z,22.83
2019-01-19T04:06:45.093Z,19.73
2019-01-19T04:09:26.332Z,27.60
2019-01-19T04:12:40.447Z,17.77
2019-01-19T04:15:47.894Z,18.80
2019-01-19T04:19:01.292Z,20.67
2019-01-19T04:22:01.318Z,22.13
2019-01-19T04:24:42.464Z,23.13
2019-01-19T04:27:23.740Z,19.70
2019-01-19T04:30:04.723Z,18.93
2019-01-19T04:32:45.385Z,17.40
2019-01-19T04:35:26.438Z,24.00
2019-01-19T04:38:07.831Z,18.57
2019-01-19T04:40:48.362Z,17.33
2019-01-19T04:43:29.666Z,18.27
2019-01-19T04:46:12.291Z,18.53
2019-01-19T04:48:53.017Z,23.37
2019-01-19T04:51:33.797Z,21.23
2019-01-19T04:54:15.102Z,20.87
2019-01-19T04:56:54.471Z,18.93
2019-01-19T04:59:42.837Z,20.30
2019-01-19T05:02:24.186Z,21.57
2019-01-19T05:05:04.595Z,20.70
2019-01-19T05:07:45.442Z,19.23
2019-01-19T05:10:26.539Z,18.50
2019-01-19T05:13:07.308Z,20.17
2019-01-19T05:15:48.218Z,22.20
2019-01-19T05:18:29.667Z,15.97
2019-01-19T05:21:10.571Z,14.80
2019-01-19T05:23:51.027Z,20.63
2019-01-19T05:26:39.328Z,16.13
2019-01-19T05:29:19.961Z,15.20
2019-01-19T05:32:00.548Z,21.37
2019-01-19T05:34:40.019Z,17.90
2019-01-19T05:37:20.494Z,13.40
2019-01-19T05:40:01.824Z,15.57
2019-01-19T05:42:42.883Z,15.57
2019-01-19T05:45:23.905Z,16.07
2019-01-19T05:48:04.692Z,15.60
2019-01-19T05:50:45.425Z,18.93
2019-01-19T05:53:25.971Z,19.40
2019-01-19T05:56:06.913Z,15.57
2019-01-19T05:58:48.265Z,14.13
2019-01-19T06:01:29.990Z,17.90
2019-01-19T06:04:11.077Z,17.70
2019-01-19T06:06:51.737Z,14.53
2019-01-19T06:09:32.442Z,18.27
2019-01-19T06:12:13.445Z,20.43
2019-01-19T06:14:54.173Z,15.53
2019-01-19T06:17:34.891Z,13.97
2019-01-19T06:20:16.603Z,15.27
2019-01-19T06:22:57.634Z,12.93
2019-01-19T06:25:38.957Z,16.93
2019-01-19T06:28:19.999Z,16.07
2019-01-19T06:31:00.968Z,18.77
2019-01-19T06:33:41.713Z,15.13
2019-01-19T06:36:22.565Z,18.00
2019-01-19T06:39:03.706Z,18.23
2019-01-19T06:41:45.050Z,16.77
2019-01-19T06:44:26.480Z,14.53
2019-01-19T06:47:07.157Z,15.70
2019-01-19T06:49:47.862Z,18.03
2019-01-19T06:52:29.256Z,13.73
2019-01-19T06:55:10.289Z,20.17
2019-01-19T06:57:51.289Z,13.20
2019-01-19T07:00:32.443Z,15.10
2019-01-19T07:03:13.485Z,16.20
2019-01-19T07:05:54.398Z,17.10
2019-01-19T07:08:35.205Z,12.80
2019-01-19T07:11:16.075Z,18.93
2019-01-19T07:13:57.382Z,17.93
2019-01-19T07:16:38.166Z,16.03
2019-01-19T07:19:19.094Z,13.60
2019-01-19T07:21:59.958Z,13.03
2019-01-19T07:27:23.438Z,19.67
2019-01-19T07:30:04.524Z,17.80
2019-01-19T07:35:44.146Z,19.63
2019-01-19T07:38:24.661Z,16.77
2019-01-19T07:41:05.987Z,13.83
2019-01-19T07:43:46.649Z,15.10
2019-01-19T07:49:17.133Z,15.63
2019-01-19T07:51:58.420Z,19.60
2019-01-19T07:54:39.821Z,13.80
2019-01-19T07:57:19.286Z,14.63
2019-01-19T07:59:59.850Z,14.47
2019-01-19T08:02:40.432Z,16.03
2019-01-19T08:05:20.904Z,17.67
2019-01-19T08:08:01.417Z,14.20
2019-01-19T08:10:42.391Z,21.43
2019-01-19T08:19:43.452Z,14.30
2019-01-19T08:22:24.348Z,15.27
2019-01-19T08:27:57.574Z,14.13
2019-01-19T08:30:57.237Z,19.00
2019-01-19T08:33:42.861Z,20.77
2019-01-19T08:36:23.747Z,18.30
2019-01-19T08:42:09.504Z,19.77
2019-01-19T08:44:50.950Z,17.57
2019-01-19T08:50:30.525Z,17.17
2019-01-19T08:53:11.736Z,13.70
2019-01-19T08:55:52.871Z,17.47
2019-01-19T09:01:15.780Z,18.23
2019-01-19T09:03:45.148Z,17.40
2019-01-19T09:06:14.616Z,19.83
2019-01-19T09:11:58.691Z,19.27
2019-01-19T09:14:39.997Z,15.93
2019-01-19T09:17:20.787Z,18.80
2019-01-19T09:20:02.206Z,22.00
2019-01-19T09:22:42.962Z,23.33
2019-01-19T09:25:23.806Z,21.70
2019-01-19T09:28:04.700Z,21.03
2019-01-19T09:30:45.653Z,19.30
2019-01-19T09:33:26.240Z,19.13
2019-01-19T09:36:06.765Z,18.50
2019-01-19T09:38:48.088Z,21.90
2019-01-19T09:41:28.997Z,21.63
2019-01-19T09:44:09.829Z,21.40
2019-01-19T09:46:50.564Z,19.10
2019-01-19T09:49:31.521Z,22.13
2019-01-19T09:52:12.190Z,21.57
2019-01-19T09:54:53.075Z,18.43
2019-01-19T09:57:33.899Z,27.00
2019-01-19T10:00:14.887Z,21.93
2019-01-19T10:02:55.761Z,22.07
2019-01-19T10:05:36.320Z,17.33
2019-01-19T10:08:17.145Z,18.63
2019-01-19T10:10:58.451Z,18.60
2019-01-19T10:13:39.423Z,19.70
2019-01-19T10:16:20.312Z,21.90
2019-01-19T10:19:00.855Z,21.37
2019-01-19T10:21:41.474Z,20.83
2019-01-19T10:24:22.271Z,19.20
2019-01-19T10:30:22.530Z,26.87
2019-01-19T10:33:03.281Z,22.23
2019-01-19T10:35:43.928Z,20.17
2019-01-19T10:38:44.213Z,22.97
2019-01-19T10:41:24.747Z,19.90
2019-01-19T10:44:05.585Z,20.37
2019-01-19T10:46:46.583Z,22.00
2019-01-19T10:49:27.791Z,23.10
2019-01-19T10:52:09.083Z,19.93
2019-01-19T10:54:50.472Z,23.23
2019-01-19T10:57:31.183Z,16.63
2019-01-19T11:00:12.411Z,21.07
2019-01-19T11:02:52.910Z,20.57
2019-01-19T11:05:34.023Z,27.50
2019-01-19T11:08:15.188Z,21.07
2019-01-19T11:10:56.506Z,24.67
2019-01-19T11:13:37.333Z,24.43
2019-01-19T11:16:18.659Z,19.30
2019-01-19T11:18:59.416Z,20.47
2019-01-19T11:21:40.208Z,18.70
2019-01-19T11:24:21.432Z,21.97
2019-01-19T11:27:02.549Z,21.10
2019-01-19T11:29:41.655Z,21.57
2019-01-19T11:32:22.566Z,27.13
2019-01-19T11:35:02.975Z,22.27
2019-01-19T11:37:43.918Z,21.37
2019-01-19T11:40:25.488Z,20.13
2019-01-19T11:43:06.176Z,18.27
2019-01-19T11:51:44.876Z,17.37
2019-01-19T11:54:26.247Z,21.03
2019-01-19T11:57:07.599Z,20.33
2019-01-19T11:59:49.276Z,19.97
2019-01-19T12:02:36.992Z,19.37
2019-01-19T12:05:15.778Z,22.07
2019-01-19T12:07:56.796Z,21.47
2019-01-19T12:10:38.127Z,14.90
2019-01-19T12:13:18.658Z,16.83
2019-01-19T12:15:59.198Z,16.80
2019-01-19T12:18:40.131Z,18.97
2019-01-19T12:27:33.302Z,20.43
2019-01-19T12:30:14.585Z,19.70
2019-01-19T12:42:14.369Z,16.13
2019-01-19T12:44:55.785Z,19.03
2019-01-19T12:47:36.767Z,17.53
2019-01-19T12:50:18.021Z,19.90
2019-01-19T12:52:59.394Z,18.53
2019-01-19T12:55:40.238Z,17.47
2019-01-19T12:58:20.872Z,17.53
2019-01-19T13:01:01.711Z,13.47
2019-01-19T13:03:43.143Z,16.60
2019-01-19T13:06:24.499Z,16.37
2019-01-19T13:09:12.324Z,16.53
2019-01-19T13:11:48.139Z,17.43
2019-01-19T13:14:29.754Z,17.03
2019-01-19T13:17:11.488Z,11.63
2019-01-19T13:19:52.673Z,16.13
2019-01-19T13:22:33.924Z,17.37
2019-01-19T13:25:15.181Z,16.27
2019-01-19T13:27:56.202Z,12.40
2019-01-19T13:30:37.456Z,16.40
2019-01-19T13:33:18.232Z,14.30
2019-01-19T13:35:59.614Z,17.00
2019-01-19T13:38:42.096Z,12.93
2019-01-19T13:44:09.452Z,16.33
2019-01-19T13:47:21.242Z,13.47
2019-01-19T13:50:16.124Z,11.60
2019-01-19T13:53:23.422Z,15.87
2019-01-19T13:56:04.126Z,13.13
2019-01-19T13:58:44.712Z,14.13
2019-01-19T14:01:25.821Z,13.60
2019-01-19T14:04:07.104Z,13.90
2019-01-19T14:06:48.110Z,14.50
2019-01-19T14:09:30.171Z,15.47
2019-01-19T14:12:11.571Z,13.23
2019-01-19T14:14:52.443Z,14.10
2019-01-19T14:17:33.841Z,13.13
2019-01-19T14:20:14.609Z,16.93
2019-01-19T14:23:02.189Z,10.50
2019-01-19T14:26:09.518Z,11.63
2019-01-19T14:28:50.673Z,13.77
2019-01-19T14:31:32.053Z,13.40
2019-01-19T14:34:13.181Z,11.33
2019-01-19T14:36:54.639Z,12.70
2019-01-19T14:39:35.954Z,15.83
2019-01-19T14:42:16.655Z,12.00
2019-01-19T14:44:57.570Z,10.13
2019-01-19T14:47:38.781Z,12.23
2019-01-19T14:50:38.489Z,10.37
2019-01-19T14:53:19.803Z,11.43
2019-01-19T14:56:00.778Z,14.20
2019-01-19T14:58:41.482Z,10.93
2019-01-19T15:01:22.123Z,10.43
2019-01-19T15:04:02.793Z,9.17
2019-01-19T15:06:43.625Z,12.80
2019-01-19T15:09:24.114Z,13.10
2019-01-19T15:12:05.197Z,10.60
2019-01-19T15:14:46.627Z,11.13
2019-01-19T15:17:28.158Z,11.47
2019-01-19T15:20:09.474Z,11.73
2019-01-19T15:22:50.324Z,10.60
2019-01-19T15:25:30.958Z,9.93
2019-01-19T15:28:12.060Z,10.10
2019-01-19T15:30:55.838Z,10.73
2019-01-19T15:33:37.303Z,12.30
2019-01-19T15:36:18.838Z,17.90
2019-01-19T15:39:00.360Z,14.63
2019-01-19T15:41:41.709Z,15.27
2019-01-19T15:44:22.558Z,13.70
2019-01-19T15:49:51.000Z,13.73
2019-01-19T15:55:14.644Z,9.43
2019-01-19T15:57:56.236Z,12.83
2019-01-19T16:00:37.390Z,18.60
2019-01-19T16:03:18.317Z,11.73
2019-01-19T16:05:59.248Z,13.07
2019-01-19T16:08:40.206Z,17.90
2019-01-19T16:11:21.631Z,15.07
2019-01-19T16:14:02.414Z,16.90
2019-01-19T16:16:43.630Z,19.27
2019-01-19T16:19:24.577Z,14.67
2019-01-19T16:22:05.698Z,22.83
2019-01-19T16:24:47.164Z,41.90
2019-01-19T16:27:27.683Z,38.67
2019-01-19T16:30:08.366Z,24.03
2019-01-19T16:32:49.738Z,17.53
2019-01-19T16:35:31.000Z,18.47
2019-01-19T16:38:12.446Z,19.50
2019-01-19T16:50:06.111Z,18.93
2019-01-19T16:56:09.604Z,21.60
2019-01-19T16:58:50.705Z,20.83
2019-01-19T17:01:31.295Z,22.90
2019-01-19T17:04:12.426Z,18.00
2019-01-19T17:06:53.897Z,18.50
2019-01-19T17:09:34.759Z,17.57
2019-01-19T17:15:35.377Z,22.10
2019-01-19T17:18:16.024Z,16.57
2019-01-19T17:20:56.425Z,14.73
2019-01-19T17:23:37.279Z,14.73
2019-01-19T17:26:18.388Z,21.47
2019-01-19T17:28:58.930Z,16.73
2019-01-19T17:31:40.429Z,14.93
2019-01-19T17:37:41.516Z,16.67
2019-01-19T17:40:22.388Z,16.60
2019-01-19T17:43:03.756Z,18.17
2019-01-19T17:45:44.413Z,14.97
2019-01-19T17:48:26.280Z,19.03
2019-01-19T17:51:07.938Z,20.77
2019-01-19T17:53:49.503Z,16.47
2019-01-19T17:56:34.799Z,26.67
2019-01-19T17:59:16.095Z,12.27
2019-01-19T18:01:57.386Z,15.40
2019-01-19T18:04:38.555Z,14.00
2019-01-19T18:07:20.000Z,12.23
2019-01-19T18:10:01.398Z,14.17
2019-01-19T18:12:41.914Z,18.83
2019-01-19T18:15:23.155Z,18.30
2019-01-19T18:18:04.165Z,13.27
2019-01-19T18:20:45.010Z,12.67
2019-01-19T18:23:25.582Z,14.87
2019-01-19T18:26:06.427Z,13.50
2019-01-19T18:28:47.909Z,22.40
2019-01-19T18:31:48.660Z,16.77
2019-01-19T18:34:54.609Z,14.60
2019-01-19T18:41:10.302Z,11.37
2019-01-19T18:43:51.418Z,14.70
2019-01-19T18:46:32.474Z,12.37
2019-01-19T18:49:13.350Z,14.30
2019-01-19T18:51:54.761Z,12.23
2019-01-19T18:54:35.298Z,9.37
2019-01-19T18:57:16.922Z,10.53
2019-01-19T18:59:58.658Z,13.10
2019-01-19T19:02:39.776Z,12.07
2019-01-19T19:05:20.331Z,12.27
2019-01-19T19:08:01.080Z,10.00
2019-01-19T19:10:41.644Z,12.50
2019-01-19T19:13:22.433Z,13.80
2019-01-19T19:16:04.023Z,13.50
2019-01-19T19:18:44.977Z,14.90
2019-01-19T19:21:26.417Z,13.00
2019-01-19T19:24:07.066Z,13.83
2019-01-19T19:26:47.890Z,13.03
2019-01-19T19:33:16.925Z,11.67
2019-01-19T19:35:57.619Z,13.03
2019-01-19T19:38:38.997Z,12.27
2019-01-19T19:41:19.525Z,12.73
2019-01-19T19:44:00.646Z,12.50
2019-01-19T19:46:41.891Z,10.57
2019-01-19T19:49:23.266Z,13.33
2019-01-19T19:52:04.232Z,25.70
2019-01-19T19:54:45.289Z,23.00
2019-01-19T19:57:26.000Z,14.70
2019-01-19T20:00:07.011Z,13.50
2019-01-19T20:02:47.766Z,12.00
2019-01-19T20:05:28.419Z,16.90
2019-01-19T20:08:09.594Z,16.73
2019-01-19T20:10:50.263Z,21.10
2019-01-19T20:13:31.127Z,14.90
2019-01-19T20:16:12.469Z,14.23
2019-01-19T20:18:53.933Z,29.70
2019-01-19T20:21:35.365Z,20.50
2019-01-19T20:24:16.721Z,25.67
2019-01-19T20:26:46.316Z,16.30
2019-01-19T20:29:34.674Z,10.70
2019-01-19T20:32:16.019Z,18.03
2019-01-19T20:34:57.401Z,16.70
2019-01-19T20:37:39.106Z,12.37
2019-01-19T20:40:24.447Z,14.17
2019-01-19T20:43:03.315Z,14.87
2019-01-19T20:45:44.057Z,14.10
2019-01-19T20:48:24.706Z,10.10
2019-01-19T20:51:05.498Z,11.80
2019-01-19T20:53:47.042Z,31.03
2019-01-19T20:56:39.962Z,15.33
2019-01-19T20:59:20.438Z,20.37
2019-01-19T21:02:01.839Z,14.57
2019-01-19T21:04:42.890Z,18.27
2019-01-19T21:07:23.727Z,12.40
2019-01-19T21:10:03.390Z,15.33
2019-01-19T21:12:51.645Z,12.23
2019-01-19T21:15:32.486Z,13.30
2019-01-19T21:18:13.289Z,15.50
2019-01-19T21:20:54.737Z,12.20
2019-01-19T21:23:35.224Z,9.20
2019-01-19T21:26:15.954Z,14.23
2019-01-19T21:28:55.322Z,11.67
2019-01-19T21:31:36.250Z,15.57
2019-01-19T21:36:59.423Z,11.47
2019-01-19T21:42:53.415Z,13.30
2019-01-19T21:45:34.039Z,10.90
2019-01-19T21:51:19.731Z,11.73
2019-01-19T21:53:59.061Z,13.53
2019-01-19T21:56:40.217Z,14.33
2019-01-19T21:59:21.472Z,12.70
2019-01-19T22:02:02.096Z,9.60
2019-01-19T22:04:43.165Z,12.60
2019-01-19T22:07:24.622Z,13.17
2019-01-19T22:10:05.193Z,10.60
2019-01-19T22:12:49.126Z,12.67
2019-01-19T22:15:30.463Z,10.67
2019-01-19T22:18:11.050Z,14.47
2019-01-19T22:20:51.973Z,11.00
2019-01-19T22:23:33.498Z,13.20
2019-01-19T22:26:16.174Z,14.13
2019-01-19T22:28:58.974Z,14.80
2019-01-19T22:31:39.745Z,10.20
2019-01-19T22:34:20.502Z,11.03
2019-01-19T22:37:02.031Z,14.83
2019-01-19T22:39:43.286Z,12.17
2019-01-19T22:42:24.687Z,9.80
2019-01-19T22:45:05.394Z,13.30
2019-01-19T22:47:46.528Z,10.30
2019-01-19T22:50:27.036Z,11.03
2019-01-19T22:53:06.428Z,10.83
2019-01-19T22:55:54.974Z,11.23
2019-01-19T22:58:36.134Z,14.43
2019-01-19T23:01:16.756Z,11.40
2019-01-19T23:03:57.972Z,14.70
2019-01-19T23:06:39.139Z,12.87
2019-01-19T23:09:20.220Z,11.77
2019-01-19T23:11:55.915Z,12.97
2019-01-19T23:17:07.635Z,10.77
2019-01-19T23:19:56.046Z,12.97
2019-01-19T23:22:36.649Z,9.57
2019-01-19T23:25:17.262Z,15.37
2019-01-19T23:27:58.207Z,14.67
2019-01-19T23:30:40.034Z,10.90
2019-01-19T23:33:20.987Z,13.17
2019-01-19T23:36:02.216Z,14.93
2019-01-19T23:38:42.697Z,15.57
2019-01-19T23:41:23.775Z,11.60
2019-01-19T23:44:04.870Z,12.07
2019-01-19T23:46:46.091Z,13.37
2019-01-19T23:49:27.382Z,11.83
2019-01-19T23:52:08.884Z,8.80
2019-01-19T23:54:38.359Z,8.17
2019-01-19T23:57:26.737Z,13.13
